Time;durP1;ratioP1;P1;durP2;ratioP2;P2;SDS_P1;SDS_P2;PMS_P1;PMS_P2;Temp;Humidity;BMP_temperature;BMP_pressure;BME280_temperature;BME280_humidity;BME280_pressure;Samples;Min_cycle;Max_cycle;Signal;HPM_P1;HPM_P2
2022/12/12 00:01:59;;;;;;;9.50;6.30;;;;;;;4.82;100.00;98248.33;1756209;78;21104;-91
2022/12/12 00:04:26;;;;;;;8.55;5.95;;;;;;;4.82;100.00;98248.33;1756510;81;21076;-89
2022/12/12 00:06:52;;;;;;;7.90;5.60;;;;;;;4.45;100.00;98252.98;1753677;81;21075;-89
2022/12/12 00:09:20;;;;;;;9.73;6.33;;;;;;;4.53;100.00;98251.34;1753878;81;21029;-89
2022/12/12 00:11:46;;;;;;;8.83;6.00;;;;;;;4.41;100.00;98252.25;1746338;81;21219;-89
2022/12/12 00:14:13;;;;;;;8.63;6.33;;;;;;;4.21;100.00;98244.45;1759496;79;20985;-88
2022/12/12 00:16:41;;;;;;;9.20;6.28;;;;;;;4.31;100.00;98245.75;1757541;79;21053;-87
2022/12/12 00:19:09;;;;;;;9.43;6.22;;;;;;;4.46;100.00;98252.52;1758350;80;20970;-89
2022/12/12 00:21:35;;;;;;;8.40;6.30;;;;;;;4.60;100.00;98258.86;1755921;79;21024;-88
2022/12/12 00:24:02;;;;;;;8.38;6.30;;;;;;;4.48;100.00;98265.03;1757791;79;21155;-89
2022/12/12 00:26:40;;;;;;;10.03;5.97;;;;;;;4.46;100.00;98270.30;1750918;81;20997;-91
2022/12/12 00:29:08;;;;;;;9.33;6.25;;;;;;;4.22;100.00;98277.39;1746086;79;21076;-92
2022/12/12 00:31:35;;;;;;;8.10;5.75;;;;;;;4.28;100.00;98271.94;1754563;81;21025;-90
2022/12/12 00:34:01;;;;;;;8.08;5.87;;;;;;;4.21;100.00;98274.41;1753399;81;21123;-88
2022/12/12 00:36:30;;;;;;;8.68;6.05;;;;;;;4.43;100.00;98289.16;1753595;79;21245;-88
2022/12/12 00:38:57;;;;;;;7.67;5.70;;;;;;;4.43;100.00;98289.16;1755951;81;21092;-88
2022/12/12 00:41:25;;;;;;;9.50;6.17;;;;;;;4.47;100.00;98285.52;1755920;81;21577;-88
2022/12/12 00:43:51;;;;;;;8.00;5.92;;;;;;;4.29;100.00;98290.56;1747459;79;21080;-91
2022/12/12 00:46:21;;;;;;;8.13;6.05;;;;;;;4.24;100.00;98288.61;1748370;79;21128;-90
2022/12/12 00:48:49;;;;;;;9.08;6.60;;;;;;;4.54;100.00;98285.64;1752805;81;21185;-89
2022/12/12 00:51:18;;;;;;;8.23;5.83;;;;;;;4.28;100.00;98282.80;1745892;81;21117;-90
2022/12/12 00:53:44;;;;;;;8.03;6.62;;;;;;;4.27;100.00;98284.56;1745841;80;21101;-90
2022/12/12 00:56:11;;;;;;;9.15;6.60;;;;;;;4.33;100.00;98285.63;1724146;81;21510;-90
2022/12/12 00:58:37;;;;;;;8.68;6.30;;;;;;;4.30;100.00;98288.36;1749038;79;21104;-90
2022/12/12 01:01:12;;;;;;;12.58;6.62;;;;;;;4.24;100.00;98293.81;1723877;81;21265;-88
2022/12/12 01:03:40;;;;;;;6.80;5.58;;;;;;;4.28;100.00;98288.88;1716082;82;21092;-88
2022/12/12 01:06:07;;;;;;;10.55;6.58;;;;;;;4.44;100.00;98273.45;1727101;80;21548;-91
2022/12/12 01:08:39;;;;;;;9.38;6.53;;;;;;;4.44;100.00;98273.45;1738731;81;21532;-92
2022/12/12 01:11:07;;;;;;;7.65;5.37;;;;;;;4.47;100.00;98272.48;1711529;81;21601;-90
2022/12/12 01:13:36;;;;;;;9.88;6.17;;;;;;;4.51;100.00;98272.28;1736232;81;21315;-90
2022/12/12 01:16:04;;;;;;;9.00;6.28;;;;;;;4.71;100.00;98267.51;1734117;81;21089;-91
2022/12/12 01:18:31;;;;;;;8.15;5.65;;;;;;;4.56;100.00;98271.63;1744938;79;21050;-91
2022/12/12 01:20:59;;;;;;;7.65;5.95;;;;;;;4.68;100.00;98265.04;1741118;81;21542;-92
2022/12/12 01:23:27;;;;;;;8.35;5.72;;;;;;;4.77;100.00;98251.61;1734919;82;21574;-90
2022/12/12 01:26:07;;;;;;;8.73;5.87;;;;;;;4.74;100.00;98253.05;1741077;80;21212;-89
2022/12/12 01:28:34;;;;;;;7.50;5.95;;;;;;;4.63;100.00;98256.11;1756445;81;21610;-89
2022/12/12 01:31:01;;;;;;;9.13;5.50;;;;;;;4.73;100.00;98269.59;1741339;81;21064;-89
2022/12/12 01:33:28;;;;;;;7.92;6.12;;;;;;;4.74;100.00;98275.66;1754018;81;21009;-89
2022/12/12 01:35:54;;;;;;;7.35;5.78;;;;;;;4.52;100.00;98281.79;1747306;80;21199;-89
2022/12/12 01:38:23;;;;;;;8.90;6.00;;;;;;;4.60;100.00;98287.55;1750830;81;21134;-87
2022/12/12 01:40:50;;;;;;;8.13;6.37;;;;;;;4.52;100.00;98292.22;1736418;81;21656;-88
2022/12/12 01:43:18;;;;;;;11.65;7.25;;;;;;;4.63;100.00;98296.99;1744744;79;21061;-90
2022/12/12 01:46:07;;;;;;;12.82;7.03;;;;;;;4.15;100.00;98295.49;1727112;80;21060;-88
2022/12/12 01:48:40;;;;;;;10.78;7.03;;;;;;;4.26;100.00;98304.19;1735246;81;21108;-89
2022/12/12 01:51:12;;;;;;;9.95;7.17;;;;;;;4.58;100.00;98294.58;1740527;81;21725;-89
2022/12/12 01:53:39;;;;;;;8.68;7.12;;;;;;;4.44;100.00;98302.56;1739928;79;21127;-90
2022/12/12 01:56:11;;;;;;;10.13;7.17;;;;;;;4.31;100.00;98298.33;1730738;79;21110;-89
2022/12/12 01:58:41;;;;;;;9.85;7.08;;;;;;;4.26;100.00;98302.89;1753156;80;21100;-89
2022/12/12 02:01:08;;;;;;;10.35;7.47;;;;;;;3.90;100.00;98295.16;1739402;79;21104;-91
2022/12/12 02:03:37;;;;;;;10.32;6.35;;;;;;;3.55;100.00;98292.62;1750858;81;21270;-89
2022/12/12 02:06:06;;;;;;;10.40;6.83;;;;;;;3.42;100.00;98290.91;1753099;81;21234;-90
2022/12/12 02:08:33;;;;;;;12.13;7.60;;;;;;;3.49;100.00;98300.65;1745243;80;21014;-89
2022/12/12 02:10:59;;;;;;;10.68;6.40;;;;;;;3.52;100.00;98294.02;1754470;79;20982;-87
2022/12/12 02:13:28;;;;;;;10.18;7.40;;;;;;;3.45;100.00;98293.42;1740401;79;20989;-87
2022/12/12 02:16:24;;;;;;;8.55;6.22;;;;;;;3.32;100.00;98290.88;1741711;79;21055;-88
2022/12/12 02:19:08;;;;;;;9.30;6.58;;;;;;;3.39;100.00;98276.73;1731907;81;21081;-88
2022/12/12 02:21:47;;;;;;;10.05;6.83;;;;;;;3.34;100.00;98272.16;1743059;81;21088;-87
2022/12/12 02:24:36;;;;;;;9.55;6.60;;;;;;;3.39;100.00;98270.23;1749274;81;21486;-90
2022/12/12 02:27:20;;;;;;;8.20;6.50;;;;;;;3.36;100.00;98278.16;1714182;81;21116;-88
2022/12/12 02:30:09;;;;;;;10.43;6.95;;;;;;;3.33;100.00;98296.47;1752354;80;21131;-86
2022/12/12 02:32:54;;;;;;;10.70;6.28;;;;;;;3.05;100.00;98289.66;1742906;80;21079;-89
2022/12/12 02:35:44;;;;;;;9.55;7.28;;;;;;;3.31;100.00;98309.55;1753945;80;21041;-88
2022/12/12 02:38:28;;;;;;;7.93;6.40;;;;;;;3.38;100.00;98293.23;1714034;80;21127;-89
2022/12/12 02:41:29;;;;;;;8.40;6.58;;;;;;;3.39;100.00;98258.52;1741694;81;21105;-89
2022/12/12 02:44:19;;;;;;;7.70;5.60;;;;;;;3.31;100.00;98260.55;1737121;81;21246;-91
2022/12/12 02:46:57;;;;;;;8.05;5.45;;;;;;;3.43;100.00;98245.79;1758894;81;21061;-90
2022/12/12 02:49:31;;;;;;;7.60;6.17;;;;;;;3.14;100.00;98234.71;1748736;81;21089;-89
2022/12/12 02:51:58;;;;;;;8.13;5.75;;;;;;;3.31;100.00;98221.52;1724551;81;21120;-91
2022/12/12 02:54:24;;;;;;;7.67;5.92;;;;;;;3.19;100.00;98218.09;1750480;79;21533;-90
2022/12/12 02:56:56;;;;;;;8.80;6.25;;;;;;;3.26;100.00;98246.87;1752404;80;21060;-91
2022/12/12 02:59:36;;;;;;;7.60;5.83;;;;;;;2.95;100.00;98262.31;1753711;80;21088;-88
2022/12/12 03:02:33;;;;;;;10.03;6.50;;;;;;;3.18;100.00;98261.93;1742190;79;21168;-90
2022/12/12 03:09:17;;;;;;;8.25;6.45;;;;;;;3.19;100.00;98289.62;1741673;79;21148;-91
2022/12/12 03:12:07;;;;;;;8.90;5.85;;;;;;;3.11;100.00;98308.96;1754412;81;21092;-89
2022/12/12 03:14:50;;;;;;;;;;;;;;;2.78;100.00;98310.14;1739306;79;20963;-92
2022/12/12 03:17:46;;;;;;;9.35;6.42;;;;;;;2.95;100.00;98311.72;1746152;79;20129;-89
2022/12/12 03:20:43;;;;;;;9.20;6.40;;;;;;;2.80;100.00;98313.53;1738754;79;21127;-90
2022/12/12 03:23:23;;;;;;;7.25;5.53;;;;;;;2.80;100.00;98311.78;1729559;79;20911;-89
2022/12/12 03:26:03;;;;;;;8.50;6.37;;;;;;;3.02;100.00;98296.28;1742699;79;21143;-91
2022/12/12 03:28:50;;;;;;;9.27;7.13;;;;;;;2.97;100.00;98291.71;1752968;79;21623;-90
2022/12/12 03:31:19;;;;;;;10.68;7.40;;;;;;;3.01;100.00;98301.08;1745711;80;21592;-91
2022/12/12 03:34:09;;;;;;;8.85;6.50;;;;;;;2.75;100.00;98320.66;1738105;80;21192;-90
2022/12/12 03:36:53;;;;;;;11.75;7.25;;;;;;;2.83;100.00;98331.62;1731281;80;21057;-89
2022/12/12 03:39:27;;;;;;;9.48;7.20;;;;;;;2.70;100.00;98332.05;1745256;80;21127;-90
2022/12/12 03:42:05;;;;;;;9.45;7.12;;;;;;;2.60;100.00;98326.78;1725317;81;21097;-90
2022/12/12 03:44:36;;;;;;;9.73;7.20;;;;;;;2.72;100.00;98325.52;1732434;81;21050;-90
2022/12/12 03:47:06;;;;;;;10.82;7.22;;;;;;;2.60;100.00;98343.67;1744584;81;21049;-90
2022/12/12 03:49:43;;;;;;;9.48;5.75;;;;;;;2.51;100.00;98340.08;1734858;79;21446;-90
2022/12/12 03:52:37;;;;;;;11.68;8.20;;;;;;;2.50;100.00;98347.45;1745494;79;21212;-89
2022/12/12 03:55:15;;;;;;;11.97;8.35;;;;;;;2.46;100.00;98361.44;1743105;81;21125;-89
2022/12/12 03:57:50;;;;;;;12.45;8.38;;;;;;;2.51;100.00;98347.41;1745946;79;21069;-89
2022/12/12 04:00:19;;;;;;;13.05;8.08;;;;;;;2.47;100.00;98352.77;1750557;79;21108;-90
2022/12/12 04:03:01;;;;;;;11.40;7.83;;;;;;;2.30;100.00;98351.56;1754029;81;21046;-89
2022/12/12 04:08:35;;;;;;;12.43;9.15;;;;;;;2.55;100.00;98376.73;1751554;79;21073;-89
2022/12/12 04:14:21;;;;;;;13.78;9.53;;;;;;;2.48;100.00;98393.42;1713890;82;21255;-89
2022/12/12 04:16:51;;;;;;;16.02;9.63;;;;;;;2.35;100.00;98397.30;1667813;84;21068;-89
2022/12/12 04:23:14;;;;;;;10.60;7.47;;;;;;;2.37;100.00;98379.92;1735786;81;21139;-90
2022/12/12 04:24:49;;;;;;;14.85;8.60;;;;;;;2.54;100.00;98359.45;1742945;80;21084;-90
2022/12/12 04:27:23;;;;;;;14.60;8.95;;;;;;;2.59;100.00;98334.16;1749590;81;21111;-91
2022/12/12 04:30:04;;;;;;;13.83;9.13;;;;;;;2.60;100.00;98338.47;1749585;81;21584;-91
2022/12/12 04:32:46;;;;;;;15.03;9.43;;;;;;;2.61;100.00;98347.11;1743312;81;21463;-90
2022/12/12 04:35:19;;;;;;;13.88;8.85;;;;;;;2.50;100.00;98347.45;1739679;81;21033;-93
2022/12/12 04:37:54;;;;;;;14.85;10.00;;;;;;;2.60;100.00;98344.97;1720121;82;21052;-90
2022/12/12 04:40:28;;;;;;;12.13;8.65;;;;;;;2.41;100.00;98362.89;1734544;81;21025;-91
2022/12/12 04:42:59;;;;;;;13.72;8.90;;;;;;;2.41;100.00;98373.73;1728116;81;21037;-89
2022/12/12 04:45:37;;;;;;;14.15;9.05;;;;;;;2.51;100.00;98368.66;1738249;81;22245;-89
2022/12/12 04:48:05;;;;;;;12.50;8.35;;;;;;;2.60;100.00;98364.46;1735315;81;21076;-89
2022/12/12 04:50:31;;;;;;;12.10;8.13;;;;;;;2.52;100.00;98361.25;1738284;81;21101;-88
2022/12/12 04:53:05;;;;;;;16.15;10.20;;;;;;;2.39;100.00;98365.14;1709389;82;21120;-90
2022/12/12 04:55:39;;;;;;;9.43;6.90;;;;;;;2.44;100.00;98380.13;1735488;81;21013;-91
2022/12/12 04:58:06;;;;;;;15.10;9.40;;;;;;;2.52;100.00;98371.64;1743060;80;21126;-89
2022/12/12 05:00:44;;;;;;;14.13;8.90;;;;;;;2.46;100.00;98353.64;1749837;81;21114;-89
2022/12/12 05:03:19;;;;;;;13.93;8.80;;;;;;;2.37;100.00;98361.73;1747600;81;21138;-89
2022/12/12 05:05:58;;;;;;;14.63;9.30;;;;;;;2.37;100.00;98378.20;1751983;81;21025;-90
2022/12/12 05:08:28;;;;;;;14.58;9.15;;;;;;;2.43;100.00;98371.94;1730812;80;21132;-89
2022/12/12 05:10:58;;;;;;;13.65;8.80;;;;;;;2.43;100.00;98368.05;1748503;80;21331;-90
2022/12/12 05:13:34;;;;;;;14.68;9.35;;;;;;;2.24;100.00;98375.13;1727599;81;21576;-86
2022/12/12 05:16:21;;;;;;;13.22;7.95;;;;;;;2.76;100.00;98367.41;1749215;80;21158;-87
2022/12/12 05:18:47;;;;;;;12.88;8.28;;;;;;;2.75;100.00;98386.94;1742734;80;21461;-88
2022/12/12 05:21:14;;;;;;;13.62;8.58;;;;;;;2.84;100.00;98387.47;1746535;80;21551;-89
2022/12/12 05:23:43;;;;;;;12.58;8.30;;;;;;;2.68;100.00;98386.29;1741691;81;21265;-89
2022/12/12 05:26:30;;;;;;;13.30;9.15;;;;;;;2.83;100.00;98398.79;1736825;81;21277;-90
2022/12/12 05:28:56;;;;;;;12.70;8.45;;;;;;;2.57;100.00;98394.42;1744086;80;21119;-91
2022/12/12 05:31:23;;;;;;;14.13;8.85;;;;;;;2.41;100.00;98402.31;1742039;80;21088;-90
2022/12/12 05:33:49;;;;;;;16.50;10.08;;;;;;;2.18;100.00;98399.97;1739327;81;21134;-90
2022/12/12 05:36:17;;;;;;;13.75;8.30;;;;;;;2.12;100.00;98400.19;1738552;81;22080;-92
2022/12/12 05:38:43;;;;;;;17.10;10.20;;;;;;;2.38;100.00;98405.86;1735013;81;21573;-90
2022/12/12 05:41:12;;;;;;;16.25;9.95;;;;;;;2.39;100.00;98419.69;1747863;80;21045;-90
2022/12/12 05:43:39;;;;;;;16.52;9.38;;;;;;;2.30;100.00;98434.69;1744603;80;21064;-89
2022/12/12 05:46:05;;;;;;;18.12;10.45;;;;;;;2.06;100.00;98441.45;1748270;81;20968;-88
2022/12/12 05:48:32;;;;;;;16.27;10.05;;;;;;;2.16;100.00;98442.02;1746570;80;21197;-87
2022/12/12 05:51:01;;;;;;;17.07;10.03;;;;;;;2.07;100.00;98448.36;1740695;81;21120;-90
2022/12/12 05:53:28;;;;;;;14.33;9.73;;;;;;;2.15;100.00;98445.53;1741942;80;21076;-90
2022/12/12 05:55:54;;;;;;;14.50;8.73;;;;;;;2.23;100.00;98430.58;1722924;82;21652;-91
2022/12/12 06:00:49;;;;;;;17.87;9.17;;;;;;;2.05;100.00;98449.31;1737871;81;21584;-89
2022/12/12 06:03:16;;;;;;;14.45;9.08;;;;;;;2.03;100.00;98445.91;1717078;82;21115;-90
2022/12/12 06:05:43;;;;;;;16.42;9.15;;;;;;;1.99;100.00;98436.50;1722961;82;21089;-90
2022/12/12 06:08:13;;;;;;;13.45;7.92;;;;;;;1.93;100.00;98454.38;1711538;82;21085;-90
2022/12/12 06:10:39;;;;;;;14.40;8.80;;;;;;;1.86;100.00;98469.31;1728646;81;21080;-91
2022/12/12 06:13:06;;;;;;;16.82;9.80;;;;;;;1.73;100.00;98478.78;1738863;82;21239;-90
2022/12/12 06:15:32;;;;;;;14.25;7.47;;;;;;;1.70;100.00;98472.36;1736788;80;21044;-90
2022/12/12 06:18:00;;;;;;;15.72;8.68;;;;;;;1.55;100.00;98471.05;1714006;80;21049;-90
2022/12/12 06:20:29;;;;;;;14.10;7.62;;;;;;;1.50;100.00;98484.14;1763406;80;21082;-90
2022/12/12 06:22:55;;;;;;;12.10;7.72;;;;;;;1.51;100.00;98481.09;1754655;80;21017;-89
2022/12/12 06:25:21;;;;;;;15.15;8.73;;;;;;;1.50;100.00;98484.14;1779805;79;21230;-88
2022/12/12 06:27:48;;;;;;;12.90;7.42;;;;;;;1.38;100.00;98486.62;1770417;79;21175;-88
2022/12/12 06:30:16;;;;;;;13.45;7.75;;;;;;;1.27;100.00;98492.52;1775544;79;21196;-86
2022/12/12 06:32:42;;;;;;;11.90;7.15;;;;;;;1.56;100.00;98497.38;1764437;79;21108;-88
2022/12/12 06:35:09;;;;;;;12.45;7.33;;;;;;;1.33;100.00;98490.20;1757558;80;21040;-90
2022/12/12 06:37:36;;;;;;;11.78;7.58;;;;;;;1.42;100.00;98497.75;1759887;79;21116;-89
2022/12/12 06:40:04;;;;;;;11.78;7.47;;;;;;;1.59;100.00;98490.84;1746077;79;21014;-89
2022/12/12 06:42:33;;;;;;;12.10;7.85;;;;;;;1.58;100.00;98487.82;1754301;80;21160;-90
2022/12/12 06:44:59;;;;;;;13.08;8.35;;;;;;;1.75;100.00;98489.52;1754131;80;21025;-90
2022/12/12 06:47:26;;;;;;;14.07;8.18;;;;;;;1.84;100.00;98495.76;1749363;80;21647;-89
2022/12/12 06:49:53;;;;;;;15.87;8.10;;;;;;;2.01;100.00;98497.02;1753630;79;21124;-92
2022/12/12 06:52:19;;;;;;;12.70;7.92;;;;;;;2.02;100.00;98503.91;1740955;82;21076;-89
2022/12/12 06:54:46;;;;;;;13.50;8.10;;;;;;;2.04;100.00;98507.31;1716887;81;21056;-90
2022/12/12 06:57:12;;;;;;;15.85;8.65;;;;;;;2.11;100.00;98499.75;1742715;80;21836;-90
2022/12/12 06:59:39;;;;;;;12.75;8.65;;;;;;;1.94;100.00;98501.53;1741209;82;21505;-88
2022/12/12 07:02:10;;;;;;;11.30;7.62;;;;;;;1.94;100.00;98502.83;1744476;80;21875;-90
2022/12/12 07:04:37;;;;;;;14.55;7.97;;;;;;;2.06;100.00;98517.21;1745541;80;21068;-89
2022/12/12 07:07:03;;;;;;;12.23;7.65;;;;;;;2.17;100.00;98516.46;1742766;82;20986;-91
2022/12/12 07:09:31;;;;;;;15.38;9.10;;;;;;;2.27;100.00;98524.83;1744156;80;21699;-90
2022/12/12 07:11:57;;;;;;;10.58;6.85;;;;;;;2.20;100.00;98533.70;1743523;80;21465;-90
2022/12/12 07:14:24;;;;;;;11.83;7.92;;;;;;;2.14;100.00;98533.44;1748038;80;21172;-92
2022/12/12 07:16:50;;;;;;;12.63;7.90;;;;;;;2.11;100.00;98528.31;1764948;79;21042;-89
2022/12/12 07:19:17;;;;;;;10.88;7.60;;;;;;;2.03;100.00;98531.59;1750629;80;21104;-89
2022/12/12 07:21:43;;;;;;;14.03;7.95;;;;;;;2.06;100.00;98522.41;1764635;80;21085;-91
2022/12/12 07:24:09;;;;;;;12.43;8.50;;;;;;;2.09;100.00;98531.40;1766189;80;21794;-90
2022/12/12 07:26:36;;;;;;;13.00;7.75;;;;;;;2.22;100.00;98529.31;1764045;79;21130;-90
2022/12/12 07:29:04;;;;;;;13.62;8.33;;;;;;;2.34;100.00;98530.70;1758036;80;21681;-89
2022/12/12 07:31:31;;;;;;;10.48;7.22;;;;;;;2.34;100.00;98522.91;1763141;79;21123;-89
2022/12/12 07:33:57;;;;;;;12.18;8.10;;;;;;;2.46;100.00;98523.83;1753846;79;21758;-89
2022/12/12 07:36:24;;;;;;;10.32;7.30;;;;;;;2.48;100.00;98526.78;1754737;79;21020;-90
2022/12/12 07:38:50;;;;;;;10.88;7.17;;;;;;;2.44;100.00;98530.82;1758840;80;21073;-89
2022/12/12 07:41:19;;;;;;;11.97;8.15;;;;;;;2.35;100.00;98539.76;1767463;80;21054;-91
2022/12/12 07:43:48;;;;;;;12.15;7.33;;;;;;;2.47;100.00;98543.74;1762911;80;21088;-89
2022/12/12 07:46:18;;;;;;;13.78;9.10;;;;;;;2.37;100.00;98560.05;1776926;80;21143;-88
2022/12/12 07:48:45;;;;;;;12.82;8.75;;;;;;;2.28;100.00;98572.85;1755142;79;21628;-89
2022/12/12 07:51:13;;;;;;;14.55;8.35;;;;;;;2.50;100.00;98573.52;1744359;79;21393;-88
2022/12/12 07:53:40;;;;;;;13.20;9.05;;;;;;;2.39;100.00;98581.62;1736819;81;21034;-88
2022/12/12 07:56:09;;;;;;;15.58;7.97;;;;;;;2.42;100.00;98580.70;1755538;80;21058;-90
2022/12/12 07:58:36;;;;;;;14.80;8.88;;;;;;;2.60;100.00;98589.27;1745879;81;21013;-90
2022/12/12 08:01:16;;;;;;;16.17;9.50;;;;;;;2.53;100.00;98598.11;1764583;79;21022;-90
2022/12/12 08:03:44;;;;;;;13.50;8.50;;;;;;;2.52;100.00;98601.62;1750370;80;21109;-90
2022/12/12 08:06:11;;;;;;;16.25;9.25;;;;;;;2.37;100.00;98594.25;1764403;79;21056;-89
2022/12/12 08:08:39;;;;;;;16.52;9.85;;;;;;;2.26;100.00;98603.21;1753467;80;21109;-90
2022/12/12 08:11:09;;;;;;;16.67;9.35;;;;;;;2.48;100.00;98598.25;1770109;79;21600;-90
2022/12/12 08:13:36;;;;;;;18.27;10.35;;;;;;;2.29;100.00;98599.22;1753882;80;21263;-89
2022/12/12 08:16:03;;;;;;;18.05;11.00;;;;;;;2.14;100.00;98594.47;1744774;80;21110;-90
2022/12/12 08:18:30;;;;;;;15.93;9.65;;;;;;;2.42;100.00;98593.70;1769446;80;21105;-90
2022/12/12 08:20:56;;;;;;;20.00;10.40;;;;;;;2.49;100.00;98593.92;1759639;80;21069;-88
2022/12/12 08:23:23;;;;;;;17.82;11.43;;;;;;;2.52;100.00;98600.32;1760676;79;21565;-89
2022/12/12 08:25:52;;;;;;;18.52;10.65;;;;;;;2.48;100.00;98598.70;1727666;81;21056;-89
2022/12/12 08:28:19;;;;;;;18.65;11.53;;;;;;;2.42;100.00;98593.70;1700868;82;21132;-90
2022/12/12 08:30:49;;;;;;;14.70;9.23;;;;;;;2.50;100.00;98590.41;1707471;83;21035;-90
2022/12/12 08:33:15;;;;;;;17.52;10.45;;;;;;;2.60;100.00;98589.69;1703909;83;21129;-88
2022/12/12 08:35:42;;;;;;;15.70;9.90;;;;;;;2.58;100.00;98580.66;1753870;80;21025;-90
2022/12/12 08:38:08;;;;;;;19.80;10.90;;;;;;;2.64;100.00;98588.71;1759572;80;21055;-89
2022/12/12 08:40:35;;;;;;;18.00;11.33;;;;;;;2.76;100.00;98584.89;1768836;80;21230;-89
2022/12/12 08:43:01;;;;;;;19.10;11.08;;;;;;;2.72;100.00;98591.50;1762047;79;21060;-91
2022/12/12 08:45:28;;;;;;;20.17;12.78;;;;;;;2.53;100.00;98604.61;1764966;79;21120;-90
2022/12/12 08:47:56;;;;;;;18.65;11.15;;;;;;;2.57;100.00;98599.73;1775470;80;21072;-90
2022/12/12 08:50:22;;;;;;;22.22;13.18;;;;;;;2.50;100.00;98594.31;1767403;80;21105;-90
2022/12/12 08:52:49;;;;;;;22.67;13.68;;;;;;;2.39;100.00;98592.02;1762980;80;21245;-90
2022/12/12 08:55:16;;;;;;;20.00;12.33;;;;;;;2.47;100.00;98605.66;1749926;80;21060;-89
2022/12/12 08:57:42;;;;;;;26.85;14.10;;;;;;;2.30;100.00;98613.93;1735168;81;21042;-89
2022/12/12 09:01:50;;;;;;;21.27;13.47;;;;;;;2.13;100.00;98599.70;1842337;76;22655;-90
2022/12/12 09:04:17;;;;;;;25.15;14.15;;;;;;;2.25;100.00;98609.28;1803264;77;21585;-90
2022/12/12 09:06:44;;;;;;;23.32;13.88;;;;;;;2.50;100.00;98613.34;1803172;77;21648;-89
2022/12/12 09:09:11;;;;;;;21.40;12.88;;;;;;;2.34;100.00;98621.17;1809017;77;21021;-90
2022/12/12 09:11:37;;;;;;;21.73;12.93;;;;;;;2.59;100.00;98622.63;1797386;77;21005;-90
2022/12/12 09:16:09;;;;;;;24.20;14.73;;;;;;;2.55;100.00;98604.12;1816888;76;22671;-91
2022/12/12 09:18:37;;;;;;;24.47;14.23;;;;;;;2.98;100.00;98617.61;1805902;77;20974;-89
2022/12/12 09:21:04;;;;;;;25.65;14.93;;;;;;;2.80;100.00;98629.41;1809525;79;21267;-90
2022/12/12 09:23:30;;;;;;;25.55;15.03;;;;;;;2.79;100.00;98626.42;1809357;77;21069;-88
2022/12/12 09:25:57;;;;;;;28.87;15.65;;;;;;;2.85;100.00;98619.30;1778378;77;21034;-90
2022/12/12 09:28:24;;;;;;;25.60;15.18;;;;;;;2.89;100.00;98613.53;1740456;82;21009;-91
2022/12/12 09:30:51;;;;;;;32.17;15.38;;;;;;;3.11;100.00;98622.39;1745485;82;21671;-88
2022/12/12 09:33:18;;;;;;;27.93;16.00;;;;;;;3.20;100.00;98619.08;1694561;83;21721;-88
2022/12/12 09:35:45;;;;;;;31.17;16.42;;;;;;;3.22;100.00;98634.20;1757059;80;21031;-89
2022/12/12 09:38:11;;;;;;;26.20;15.45;;;;;;;3.03;100.00;98634.77;1759440;79;21170;-90
2022/12/12 09:40:47;;;;;;;28.20;15.78;;;;;;;3.09;100.00;98631.98;1761990;80;21127;-88
2022/12/12 09:43:17;;;;;;;26.33;14.68;;;;;;;3.10;100.00;98634.98;1722004;81;21025;-90
2022/12/12 09:45:44;;;;;;;28.67;15.93;;;;;;;3.05;100.00;98644.67;1764756;80;21168;-91
2022/12/12 09:48:36;;;;;;;28.17;15.75;;;;;;;2.97;100.00;98649.27;1720139;80;21152;-91
2022/12/12 09:51:06;;;;;;;34.63;18.52;;;;;;;3.08;100.00;98655.01;1779035;80;21679;-90
2022/12/12 09:53:33;;;;;;;30.32;17.02;;;;;;;2.96;100.00;98665.76;1740846;82;21005;-90
2022/12/12 09:56:40;;;;;;;30.08;16.73;;;;;;;2.92;100.00;98677.14;1747308;82;20966;-89
2022/12/12 09:59:32;;;;;;;30.30;16.20;;;;;;;2.27;100.00;98675.04;1681136;83;21148;-90
2022/12/12 10:02:21;;;;;;;34.35;18.07;;;;;;;2.38;100.00;98675.22;1766385;80;21010;-89
2022/12/12 10:05:05;;;;;;;32.75;17.52;;;;;;;2.41;100.00;98671.22;1778216;79;21081;-89
2022/12/12 10:07:49;;;;;;;32.08;16.37;;;;;;;1.96;100.00;98688.44;1765394;80;21137;-87
2022/12/12 10:10:27;;;;;;;31.25;16.75;;;;;;;1.97;100.00;98703.11;1779092;80;21148;-88
2022/12/12 10:12:54;;;;;;;35.85;18.73;;;;;;;1.98;100.00;98704.38;1759991;80;21254;-89
2022/12/12 10:15:36;;;;;;;35.88;17.10;;;;;;;1.95;100.00;98700.99;1753091;80;21009;-86
2022/12/12 10:18:09;;;;;;;32.93;16.97;;;;;;;2.01;100.00;98699.55;1753907;80;21060;-86
2022/12/12 10:20:41;;;;;;;34.08;17.35;;;;;;;1.89;100.00;98700.27;1751819;80;21005;-86
2022/12/12 14:09:03;;;;;;;38.90;20.93;;;;;;;0.89;100.00;98902.55;1842392;77;22771;-67
2022/12/12 14:11:33;;;;;;;39.75;18.90;;;;;;;0.86;100.00;98910.83;1817627;79;21025;-66
2022/12/12 14:14:10;;;;;;;43.30;21.80;;;;;;;0.74;100.00;98904.13;1817710;79;21153;-68
2022/12/12 14:16:36;;;;;;;38.50;19.48;;;;;;;0.86;100.00;98906.95;1816049;79;20970;-67
2022/12/12 14:19:06;;;;;;;41.65;19.87;;;;;;;0.97;100.00;98911.05;1817536;78;20967;-68
2022/12/12 14:21:46;;;;;;;39.15;19.92;;;;;;;1.00;100.00;98912.73;1817541;79;21580;-68
2022/12/12 14:24:37;;;;;;;37.20;18.37;;;;;;;1.11;100.00;98913.84;1817717;79;21006;-68
2022/12/12 14:27:06;;;;;;;35.78;18.48;;;;;;;1.31;100.00;98911.74;1817732;79;20992;-68
2022/12/12 14:29:36;;;;;;;36.10;17.57;;;;;;;1.23;100.00;98920.94;1817492;78;20998;-68
2022/12/12 14:32:24;;;;;;;35.03;17.25;;;;;;;1.21;100.00;98926.59;1817589;78;21026;-68
2022/12/12 14:35:23;;;;;;;34.30;17.75;;;;;;;1.35;100.00;98922.45;1816315;79;21529;-68
2022/12/12 14:38:12;;;;;;;38.00;18.50;;;;;;;1.42;100.00;98918.84;1816948;79;21039;-66
2022/12/12 14:40:45;;;;;;;41.85;20.32;;;;;;;1.28;100.00;98914.38;1817322;79;21156;-67
2022/12/12 14:43:22;;;;;;;40.35;20.82;;;;;;;1.40;100.00;98912.86;1817467;78;21593;-68
2022/12/12 14:45:58;;;;;;;30.65;16.30;;;;;;;1.38;100.00;98908.14;1817557;78;21534;-68
2022/12/12 14:48:33;;;;;;;35.83;18.95;;;;;;;1.46;100.00;98917.91;1817628;78;21078;-68
2022/12/12 14:51:24;;;;;;;35.00;18.37;;;;;;;1.78;100.00;98912.52;1817234;79;21093;-67
2022/12/12 14:53:53;;;;;;;32.60;17.85;;;;;;;1.51;100.00;98919.56;1817586;78;21080;-67
2022/12/12 14:56:40;;;;;;;28.52;15.30;;;;;;;1.66;100.00;98914.93;1817341;79;21054;-68
2022/12/12 14:59:15;;;;;;;31.05;16.37;;;;;;;1.67;100.00;98915.78;1826225;78;21069;-68
2022/12/12 15:01:45;;;;;;;37.00;16.87;;;;;;;1.80;100.00;98911.20;1836992;78;21011;-68
2022/12/12 15:04:16;;;;;;;37.80;19.52;;;;;;;1.72;100.00;98911.34;1837153;78;20986;-69
2022/12/12 15:06:46;;;;;;;34.20;17.90;;;;;;;1.72;100.00;98910.04;1836890;78;21995;-67
2022/12/12 15:09:28;;;;;;;38.35;19.82;;;;;;;1.73;100.00;98909.63;1836677;77;21085;-68
2022/12/12 15:12:11;;;;;;;35.10;19.27;;;;;;;1.62;100.00;98904.19;1835830;78;21112;-67
2022/12/12 15:14:48;;;;;;;32.00;15.80;;;;;;;1.63;100.00;98915.42;1826917;78;21064;-67
2022/12/12 15:17:28;;;;;;;36.40;17.55;;;;;;;1.75;100.00;98919.08;1816092;78;21524;-66
2022/12/12 15:20:02;;;;;;;37.23;17.40;;;;;;;1.43;100.00;98927.51;1817121;79;21118;-68
2022/12/12 15:22:35;;;;;;;34.92;18.23;;;;;;;1.59;100.00;98938.45;1816962;79;21076;-67
2022/12/12 15:25:14;;;;;;;34.60;18.17;;;;;;;1.68;100.00;98933.08;1817050;77;21028;-68
2022/12/12 15:27:41;;;;;;;29.60;16.32;;;;;;;1.59;100.00;98943.64;1816927;79;21033;-68
2022/12/12 15:30:22;;;;;;;38.35;18.20;;;;;;;1.44;100.00;98940.43;1816956;79;21181;-68
2022/12/12 15:32:50;;;;;;;33.40;17.20;;;;;;;1.49;100.00;98948.58;1817032;78;21247;-68
2022/12/12 16:53:18;;;;;;;48.33;25.63;;;;;;;0.88;100.00;99011.01;1851121;76;22026;-67
2022/12/12 16:55:48;;;;;;;40.58;21.93;;;;;;;1.18;100.00;99010.09;1855032;77;21029;-67
2022/12/12 16:58:16;;;;;;;52.88;27.00;;;;;;;1.14;100.00;99023.55;1854529;77;21674;-67
2022/12/12 17:00:42;;;;;;;42.45;22.95;;;;;;;1.49;100.00;99022.52;1854831;77;20969;-66
2022/12/12 17:03:13;;;;;;;49.40;25.30;;;;;;;1.58;100.00;99023.66;1854241;77;21044;-67
2022/12/12 17:05:41;;;;;;;51.80;26.35;;;;;;;1.61;100.00;99022.29;1855133;77;21079;-68
2022/12/12 17:08:08;;;;;;;54.33;26.87;;;;;;;1.57;100.00;99023.25;1854563;77;21045;-67
2022/12/12 17:10:35;;;;;;;46.77;24.25;;;;;;;1.68;100.00;99016.98;1854965;77;21112;-67